Time;durP1;ratioP1;P1;durP2;ratioP2;P2;SDS_P1;SDS_P2;PMS_P1;PMS_P2;Temp;Humidity;BMP_temperature;BMP_pressure;BME280_temperature;BME280_humidity;BME280_pressure;Samples;Min_cycle;Max_cycle;Signal;HPM_P1;HPM_P2
2023/07/19 00:00:13;;;;;;;6.10;3.10;;;18.50;75.00;;;19.53;53.82;100364.88;4996070;28;20049;-86
2023/07/19 00:02:45;;;;;;;8.35;3.10;;;18.50;75.20;;;19.51;53.67;100364.34;4996485;28;20748;-86
2023/07/19 00:05:12;;;;;;;6.38;3.30;;;18.50;75.10;;;19.50;53.52;100359.19;4995700;28;20065;-86
2023/07/19 00:07:40;;;;;;;7.07;2.92;;;18.50;75.20;;;19.48;53.63;100358.69;4996615;28;20052;-86
2023/07/19 00:10:09;;;;;;;6.30;3.03;;;18.40;75.30;;;19.46;53.57;100358.13;5013760;28;20068;-87
2023/07/19 00:12:37;;;;;;;6.38;3.15;;;18.40;75.20;;;19.43;53.50;100356.78;4996582;28;20140;-88
2023/07/19 00:15:05;;;;;;;7.30;3.20;;;18.40;75.00;;;19.41;53.62;100358.94;4996594;28;20145;-88
2023/07/19 00:17:32;;;;;;;7.60;3.10;;;18.30;75.20;;;19.38;53.72;100359.50;5014181;28;20125;-88
2023/07/19 00:19:59;;;;;;;6.82;3.28;;;18.30;75.20;;;19.37;54.08;100351.63;4996459;28;20141;-86
2023/07/19 00:22:27;;;;;;;6.30;3.15;;;18.30;75.70;;;19.34;54.18;100349.50;4996631;28;20053;-88
2023/07/19 00:24:54;;;;;;;6.50;2.85;;;18.30;76.00;;;19.31;54.09;100340.03;4996778;28;20044;-88
2023/07/19 00:27:24;;;;;;;6.38;3.20;;;18.20;75.80;;;19.27;54.03;100339.75;4996514;28;20140;-88
2023/07/19 00:29:51;;;;;;;6.15;2.92;;;18.20;76.10;;;19.27;54.49;100336.22;4996023;28;20499;-88
2023/07/19 00:32:18;;;;;;;9.52;2.92;;;18.20;76.30;;;19.26;54.57;100340.84;4996203;28;20070;-88
2023/07/19 00:34:47;;;;;;;9.45;3.13;;;18.20;76.40;;;19.27;54.75;100330.81;4996258;28;20123;-88
2023/07/19 00:37:14;;;;;;;6.35;3.10;;;18.20;76.80;;;19.26;54.68;100337.31;4996024;28;20506;-88
2023/07/19 00:39:43;;;;;;;6.50;3.03;;;18.20;76.60;;;19.23;54.80;100333.28;4995851;28;20140;-88
2023/07/19 00:42:10;;;;;;;7.55;3.03;;;18.10;76.80;;;19.22;54.85;100330.84;4996399;28;20128;-88
2023/07/19 00:48:39;;;;;;;7.95;3.05;;;18.20;77.00;;;19.20;54.86;100324.91;5013085;28;20041;-88
2023/07/19 00:51:07;;;;;;;7.72;3.20;;;18.20;77.20;;;19.17;55.00;100325.44;4995619;28;20517;-88
2023/07/19 00:53:35;;;;;;;6.05;3.10;;;18.10;77.40;;;19.14;55.38;100328.69;4995986;28;20154;-87
2023/07/19 00:56:03;;;;;;;5.28;2.83;;;18.10;77.40;;;19.12;55.24;100323.53;4995708;28;20137;-88
2023/07/19 00:58:31;;;;;;;5.95;3.03;;;18.10;77.80;;;19.10;55.51;100322.19;4995522;28;20204;-88
2023/07/19 01:00:59;;;;;;;5.65;2.80;;;18.10;77.80;;;19.09;55.68;100317.88;4995951;28;20607;-88
2023/07/19 01:03:26;;;;;;;5.47;2.70;;;18.00;77.80;;;19.09;55.62;100317.88;4995560;28;20045;-88
2023/07/19 01:05:59;;;;;;;5.93;2.58;;;18.00;77.80;;;19.07;55.38;100314.63;4995875;28;20054;-88
2023/07/19 01:08:27;;;;;;;5.93;2.92;;;18.00;77.80;;;19.05;55.53;100312.19;4995437;28;20054;-88
2023/07/19 01:10:55;;;;;;;6.47;3.35;;;18.00;78.00;;;19.03;55.52;100315.19;4995839;28;20042;-88
2023/07/19 01:13:23;;;;;;;6.47;3.17;;;18.00;78.00;;;19.04;55.57;100310.59;4995347;28;20053;-88
2023/07/19 01:15:51;;;;;;;7.07;2.90;;;18.00;78.00;;;19.02;55.46;100310.84;4995049;28;20107;-88
2023/07/19 01:18:19;;;;;;;5.28;2.70;;;17.90;78.00;;;18.98;55.69;100306.25;4995077;28;20542;-88
2023/07/19 01:20:46;;;;;;;5.53;3.30;;;17.90;78.00;;;18.97;55.58;100308.13;4995548;28;20041;-88
2023/07/19 01:23:15;;;;;;;7.43;3.40;;;17.90;78.10;;;18.96;55.66;100317.34;4979355;28;20132;-88
2023/07/19 01:25:44;;;;;;;9.18;3.08;;;17.90;78.10;;;18.94;55.45;100308.69;4995852;28;20042;-88
2023/07/19 01:28:11;;;;;;;6.85;3.20;;;17.90;78.20;;;18.93;55.74;100312.47;4995493;28;20115;-88
2023/07/19 01:30:38;;;;;;;5.82;2.70;;;17.80;78.20;;;18.91;55.84;100309.22;4995168;28;20073;-88
2023/07/19 01:33:06;;;;;;;7.72;2.90;;;17.80;78.40;;;18.86;55.79;100294.91;4995336;28;20139;-88
2023/07/19 01:35:34;;;;;;;7.72;3.40;;;17.80;78.40;;;18.84;55.78;100295.19;4995470;28;20139;-88
2023/07/19 01:38:01;;;;;;;7.60;3.10;;;17.70;78.60;;;18.84;55.80;100297.88;4995188;28;20050;-88
2023/07/19 01:40:30;;;;;;;5.45;2.95;;;17.70;78.60;;;18.82;56.07;100291.13;4995022;28;20148;-88
2023/07/19 01:42:57;;;;;;;4.82;2.80;;;17.70;78.60;;;18.80;56.08;100291.41;4995327;28;20530;-88
2023/07/19 01:45:25;;;;;;;6.30;2.70;;;17.70;78.70;;;18.78;55.95;100282.72;4995512;28;20052;-87
2023/07/19 01:47:52;;;;;;;6.53;2.80;;;17.70;78.80;;;18.77;56.15;100284.63;4995145;28;20085;-88
2023/07/19 01:50:19;;;;;;;5.05;2.42;;;17.70;78.90;;;18.75;56.32;100281.41;4994682;28;20034;-88
2023/07/19 01:52:47;;;;;;;5.07;2.50;;;17.70;79.00;;;18.71;56.24;100274.91;4978933;28;20132;-87
2023/07/19 01:55:14;;;;;;;5.78;2.85;;;17.60;79.00;;;18.68;56.34;100269.19;4995153;28;20052;-88
2023/07/19 01:57:43;;;;;;;5.95;2.78;;;17.60;79.20;;;18.69;56.22;100279.78;4995546;28;20144;-88
2023/07/19 02:00:12;;;;;;;5.75;2.83;;;17.60;79.20;;;18.67;56.34;100272.97;4994806;28;20052;-88
2023/07/19 02:02:47;;;;;;;8.23;3.10;;;17.60;79.20;;;18.66;56.40;100271.38;4980214;28;20046;-88
2023/07/19 02:05:14;;;;;;;7.18;3.20;;;17.60;79.20;;;18.69;56.36;100273.53;4995575;28;20041;-88
2023/07/19 02:07:42;;;;;;;5.78;3.10;;;17.60;79.20;;;18.67;56.36;100275.69;4995064;28;20504;-88
2023/07/19 02:10:10;;;;;;;6.32;2.83;;;17.60;79.10;;;18.63;56.66;100272.69;4994968;28;20073;-88
2023/07/19 02:12:38;;;;;;;6.35;3.08;;;17.60;79.40;;;18.63;56.52;100278.09;4995269;28;20056;-88
2023/07/19 02:15:08;;;;;;;5.90;3.28;;;17.60;79.50;;;18.61;56.32;100269.47;4995101;28;20046;-88
2023/07/19 02:17:36;;;;;;;7.53;2.92;;;17.60;79.40;;;18.61;56.43;100271.38;4995161;28;20069;-88
2023/07/19 02:20:04;;;;;;;4.50;2.80;;;17.50;79.50;;;18.58;56.48;100274.59;4995230;28;20048;-88
2023/07/19 02:22:31;;;;;;;6.88;3.10;;;17.60;79.60;;;18.56;56.60;100277.56;4995521;28;20100;-88
2023/07/19 02:24:59;;;;;;;7.45;2.95;;;17.50;79.80;;;18.52;56.54;100268.38;4994930;28;20052;-88
2023/07/19 02:27:26;;;;;;;7.93;2.85;;;17.40;79.80;;;18.49;56.62;100275.13;4995117;28;20073;-88
2023/07/19 02:29:53;;;;;;;5.57;2.75;;;17.40;79.80;;;18.47;56.81;100274.59;4997749;28;20096;-88
2023/07/19 02:32:22;;;;;;;5.97;2.90;;;17.40;79.90;;;18.45;56.50;100270.53;4998313;28;20529;-88
2023/07/19 02:34:49;;;;;;;7.03;2.50;;;17.40;79.90;;;18.44;56.63;100268.91;4998530;28;20100;-88
2023/07/19 02:37:16;;;;;;;6.65;3.17;;;17.30;79.80;;;18.41;56.46;100262.16;4998490;28;20046;-86
2023/07/19 02:39:43;;;;;;;5.95;2.80;;;17.30;79.80;;;18.38;56.65;100265.38;4998064;28;20502;-88
2023/07/19 02:42:12;;;;;;;5.47;3.10;;;17.30;79.80;;;18.37;56.48;100265.66;4998436;28;20796;-88
2023/07/19 02:44:39;;;;;;;6.53;2.88;;;17.30;79.60;;;18.37;56.39;100268.38;4998649;28;20081;-88
2023/07/19 02:47:09;;;;;;;5.75;2.80;;;17.30;79.70;;;18.33;56.52;100270.78;4998301;28;20104;-87
2023/07/19 02:49:37;;;;;;;7.03;2.97;;;17.20;79.60;;;18.30;56.36;100268.63;4997983;28;20077;-88
2023/07/19 02:52:06;;;;;;;5.70;2.70;;;17.20;79.60;;;18.28;56.46;100274.28;4997996;28;20042;-88
2023/07/19 02:54:33;;;;;;;5.18;2.50;;;17.20;79.70;;;18.26;56.30;100264.84;4994311;28;20558;-88
2023/07/19 02:57:01;;;;;;;5.75;2.70;;;17.10;79.70;;;18.25;56.21;100268.59;4997985;28;20137;-87
2023/07/19 02:59:28;;;;;;;4.90;2.60;;;17.10;79.70;;;18.22;56.14;100271.84;4997635;28;20128;-88
2023/07/19 03:01:55;;;;;;;4.85;2.28;;;17.00;79.50;;;18.20;56.14;100274.81;4997887;28;20046;-88
2023/07/19 03:04:22;;;;;;;5.68;2.50;;;17.10;79.70;;;18.14;56.43;100269.66;4997556;28;20418;-87
2023/07/19 03:06:51;;;;;;;5.47;2.78;;;17.10;79.80;;;18.12;56.35;100266.44;4997576;28;20157;-87
2023/07/19 03:09:19;;;;;;;4.57;2.28;;;17.00;79.60;;;18.13;56.50;100270.75;4997711;28;20088;-88
2023/07/19 03:11:47;;;;;;;5.10;2.13;;;17.10;79.80;;;18.15;56.40;100261.28;4997826;28;20069;-88
2023/07/19 03:14:14;;;;;;;5.35;2.60;;;17.10;79.60;;;18.17;56.28;100269.13;4997443;28;20100;-88
2023/07/19 03:16:42;;;;;;;7.57;2.40;;;17.10;79.40;;;18.17;55.94;100269.94;5015477;28;20049;-87
2023/07/19 03:19:09;;;;;;;4.78;2.38;;;17.20;79.20;;;18.18;55.96;100268.88;4997765;28;20137;-88
2023/07/19 03:21:37;;;;;;;7.65;2.58;;;17.20;79.10;;;18.18;56.13;100271.56;4997805;28;20049;-88
2023/07/19 03:24:06;;;;;;;5.07;2.40;;;17.20;78.80;;;18.19;55.82;100275.88;4997915;28;20729;-88
2023/07/19 03:26:33;;;;;;;6.38;2.75;;;17.20;78.70;;;18.19;56.02;100273.19;4997580;28;20549;-88
2023/07/19 03:29:01;;;;;;;5.53;2.50;;;17.20;78.70;;;18.20;56.12;100273.97;4997196;28;20128;-88
2023/07/19 03:31:28;;;;;;;7.03;2.63;;;17.20;78.80;;;18.20;56.03;100279.38;4997300;28;20415;-87
2023/07/19 03:33:55;;;;;;;6.20;2.45;;;17.20;78.70;;;18.20;56.07;100284.78;4997549;28;20080;-88
2023/07/19 03:36:23;;;;;;;6.32;2.60;;;17.20;78.90;;;18.21;56.37;100281.03;4997351;28;20418;-87
2023/07/19 03:38:51;;;;;;;6.22;2.35;;;17.20;79.20;;;18.20;56.34;100285.63;4997012;28;20052;-88
2023/07/19 03:41:20;;;;;;;7.03;2.70;;;17.20;79.00;;;18.20;55.88;100282.09;4996892;28;20104;-88
2023/07/19 03:43:48;;;;;;;6.05;2.70;;;17.20;78.80;;;18.21;56.32;100292.63;4996893;28;20054;-88
2023/07/19 03:46:15;;;;;;;13.55;3.15;;;17.20;78.80;;;18.21;55.85;100287.25;4996902;28;20128;-88
2023/07/19 03:48:43;;;;;;;5.32;2.60;;;17.20;78.60;;;18.22;55.96;100296.16;4996751;28;20825;-88
2023/07/19 03:51:10;;;;;;;7.57;3.15;;;17.20;78.80;;;18.21;56.58;100295.34;4980954;28;20141;-87
2023/07/19 03:53:37;;;;;;;7.15;2.70;;;17.30;79.60;;;18.20;56.79;100300.97;4996808;28;20041;-88
2023/07/19 03:56:06;;;;;;;6.65;2.55;;;17.20;79.70;;;18.15;57.00;100304.47;4996873;28;20655;-88
2023/07/19 03:58:35;;;;;;;7.55;2.33;;;17.20;79.80;;;18.13;57.01;100298.53;4996694;28;20046;-88
2023/07/19 04:01:03;;;;;;;8.02;2.67;;;17.20;79.80;;;18.16;57.22;100305.31;4996945;28;20048;-88
2023/07/19 04:03:31;;;;;;;6.43;2.47;;;17.20;80.30;;;18.16;57.30;100300.72;4996853;28;20052;-88
2023/07/19 04:05:58;;;;;;;7.53;3.03;;;17.20;80.40;;;18.17;57.35;100298.81;4996991;28;20046;-88
2023/07/19 04:08:27;;;;;;;9.38;3.03;;;17.20;80.40;;;18.17;57.26;100304.22;4996361;28;20045;-88
2023/07/19 04:10:54;;;;;;;5.97;2.70;;;17.20;80.40;;;18.18;57.67;100308.53;4996864;28;20041;-88
2023/07/19 04:13:21;;;;;;;5.13;2.88;;;17.20;80.70;;;18.18;58.08;100313.94;4996658;28;20096;-88
2023/07/19 04:15:50;;;;;;;8.40;3.00;;;17.30;81.20;;;18.17;57.98;100305.03;4996710;28;20054;-88
2023/07/19 04:18:17;;;;;;;7.55;3.60;;;17.30;81.10;;;18.21;57.89;100303.44;4980174;28;20119;-88
2023/07/19 04:20:45;;;;;;;5.55;3.00;;;17.30;81.00;;;18.23;58.06;100301.28;4996264;28;20042;-88
2023/07/19 04:23:13;;;;;;;6.55;3.35;;;17.30;81.20;;;18.28;58.59;100300.47;4996135;28;20050;-88
2023/07/19 04:25:40;;;;;;;6.65;3.17;;;17.40;81.40;;;18.29;58.87;100299.38;4996380;28;20053;-87
2023/07/19 04:28:08;;;;;;;6.78;3.30;;;17.50;81.90;;;18.31;59.15;100293.75;4980300;28;20050;-88
2023/07/19 04:30:35;;;;;;;5.80;2.97;;;17.50;82.10;;;18.33;59.17;100297.78;4996299;28;20034;-88
2023/07/19 04:33:04;;;;;;;7.72;3.15;;;17.50;82.00;;;18.38;59.32;100302.38;5013885;28;20042;-88
2023/07/19 04:35:32;;;;;;;6.47;2.90;;;17.60;82.10;;;18.40;59.72;100306.44;4996655;28;20108;-88
2023/07/19 04:37:59;;;;;;;6.38;3.08;;;17.60;82.30;;;18.44;59.71;100306.72;4996329;28;20046;-87
2023/07/19 04:40:27;;;;;;;6.95;2.95;;;17.60;82.60;;;18.47;60.09;100298.09;4996181;28;20041;-88
2023/07/19 04:42:54;;;;;;;6.88;3.00;;;17.70;82.90;;;18.50;60.18;100292.97;5013911;28;20056;-88
2023/07/19 04:45:22;;;;;;;9.15;3.22;;;17.80;82.90;;;18.52;59.40;100296.19;4995954;28;20045;-88
2023/07/19 04:47:50;;;;;;;13.02;3.80;;;17.80;82.00;;;18.54;59.26;100293.22;4995831;28;20033;-88
2023/07/19 04:50:19;;;;;;;11.95;3.70;;;17.90;81.80;;;18.55;59.15;100304.84;4995225;28;20053;-88
2023/07/19 04:52:46;;;;;;;8.25;3.50;;;17.90;81.60;;;18.55;58.83;100305.66;4996180;28;20041;-88
2023/07/19 04:55:14;;;;;;;9.45;3.75;;;17.80;81.20;;;18.53;58.63;100297.81;4995922;28;20738;-88
2023/07/19 04:57:42;;;;;;;8.18;3.55;;;17.90;81.40;;;18.56;59.09;100298.38;4995989;28;20065;-88
2023/07/19 05:00:13;;;;;;;8.63;3.13;;;17.80;81.60;;;18.57;59.14;100297.28;4995655;28;20413;-88
2023/07/19 05:02:41;;;;;;;10.63;3.45;;;17.90;82.00;;;18.58;59.27;100296.19;4995819;28;20064;-88
2023/07/19 05:05:12;;;;;;;7.63;3.47;;;17.90;81.70;;;18.60;59.26;100288.66;4995643;28;20050;-88
2023/07/19 05:07:41;;;;;;;7.43;3.50;;;17.90;82.00;;;18.62;59.11;100291.88;4995865;28;20046;-88
2023/07/19 05:10:10;;;;;;;9.13;3.47;;;17.90;81.60;;;18.64;59.55;100292.41;4995934;28;20042;-88
2023/07/19 05:12:37;;;;;;;8.20;3.53;;;18.00;82.20;;;18.63;59.35;100291.63;4980207;28;20045;-88
2023/07/19 05:15:06;;;;;;;7.60;3.67;;;18.00;81.90;;;18.63;59.49;100302.41;4995753;28;20092;-88
2023/07/19 05:17:33;;;;;;;10.43;4.05;;;18.00;81.90;;;18.67;58.96;100303.50;4995732;28;20045;-88
2023/07/19 05:20:01;;;;;;;11.48;3.95;;;18.00;81.20;;;18.66;58.48;100292.97;4995464;28;20096;-88
2023/07/19 05:22:30;;;;;;;10.73;4.07;;;18.00;80.70;;;18.67;58.52;100290.00;4995595;28;20046;-88
2023/07/19 05:24:59;;;;;;;8.45;3.47;;;18.10;80.80;;;18.70;58.72;100294.09;4995499;28;20122;-85
2023/07/19 05:27:26;;;;;;;8.90;3.58;;;18.10;80.90;;;18.74;59.10;100297.88;4994949;28;20398;-86
2023/07/19 05:29:54;;;;;;;11.15;4.00;;;18.10;81.20;;;18.74;58.83;100297.88;4994828;28;20041;-86
2023/07/19 05:32:21;;;;;;;9.25;3.58;;;18.20;80.80;;;18.76;58.91;100301.13;4995084;28;20663;-86
2023/07/19 05:34:48;;;;;;;11.10;3.40;;;18.20;80.80;;;18.76;59.03;100301.94;4995071;28;20042;-86
2023/07/19 05:37:15;;;;;;;7.53;3.90;;;18.20;80.90;;;18.79;58.29;100308.69;4994963;28;20149;-86
2023/07/19 05:39:43;;;;;;;8.05;3.53;;;18.20;80.00;;;18.80;58.37;100302.22;4994459;28;20034;-86
2023/07/19 05:42:11;;;;;;;10.75;3.60;;;18.30;80.20;;;18.78;57.70;100307.84;4994566;28;20070;-86
2023/07/19 05:44:39;;;;;;;8.20;3.40;;;18.30;79.20;;;18.80;58.33;100310.31;5010933;28;20160;-86
2023/07/19 05:47:07;;;;;;;9.05;3.97;;;18.30;80.20;;;18.83;58.82;100309.75;4994938;28;20033;-86
2023/07/19 05:49:35;;;;;;;10.40;3.60;;;18.30;80.80;;;18.87;59.50;100301.94;4978749;28;20042;-86
2023/07/19 05:52:02;;;;;;;7.50;3.55;;;18.30;81.60;;;18.87;59.60;100294.63;5012621;28;20117;-86
2023/07/19 05:54:31;;;;;;;10.30;3.80;;;18.30;81.40;;;18.90;58.81;100296.81;4994963;28;20054;-86
2023/07/19 05:56:58;;;;;;;9.80;4.03;;;18.40;80.70;;;18.93;59.36;100304.34;4995536;28;20140;-88
2023/07/19 05:59:28;;;;;;;7.07;3.13;;;18.40;81.60;;;18.94;59.68;100302.50;5012829;28;20038;-88
2023/07/19 06:01:56;;;;;;;10.05;3.60;;;18.40;81.60;;;18.96;59.75;100297.59;4996793;28;20050;-88
2023/07/19 06:04:23;;;;;;;8.40;3.42;;;18.50;81.40;;;18.97;59.73;100299.22;4999239;28;20088;-88
2023/07/19 06:06:50;;;;;;;10.07;3.40;;;18.50;81.80;;;18.96;59.58;100303.00;5016710;28;20034;-88
2023/07/19 06:09:18;;;;;;;8.85;3.00;;;18.50;81.30;;;18.97;59.27;100305.44;4999609;28;20077;-88
2023/07/19 06:11:45;;;;;;;9.18;3.67;;;18.50;81.20;;;18.97;59.39;100305.44;5016905;28;20034;-88
2023/07/19 06:14:13;;;;;;;10.93;3.90;;;18.50;81.10;;;18.96;59.68;100301.13;4999100;28;20138;-88
2023/07/19 06:16:42;;;;;;;7.00;3.67;;;18.50;81.60;;;18.96;59.38;100311.94;4998965;28;20517;-88
2023/07/19 06:19:09;;;;;;;9.20;3.50;;;18.50;81.00;;;18.97;59.54;100304.63;4998639;28;20133;-87
2023/07/19 06:21:37;;;;;;;8.05;3.35;;;18.50;81.50;;;18.96;59.42;100303.81;4998933;28;20069;-88
2023/07/19 06:24:05;;;;;;;11.18;3.70;;;18.50;81.10;;;18.97;59.63;100302.72;4998627;28;20077;-88
2023/07/19 06:26:32;;;;;;;9.23;3.90;;;18.50;81.40;;;18.97;59.84;100293.81;4999000;28;20045;-88
2023/07/19 06:28:59;;;;;;;9.73;3.67;;;18.50;81.90;;;18.97;59.97;100300.03;4998602;28;20414;-88
2023/07/19 06:31:26;;;;;;;13.15;3.50;;;18.50;82.00;;;18.98;60.09;100298.97;5014964;28;20074;-88
2023/07/19 06:33:55;;;;;;;8.40;3.45;;;18.50;82.20;;;18.99;60.34;100303.28;4998692;28;20566;-88
2023/07/19 06:36:22;;;;;;;7.22;3.33;;;18.50;82.20;;;19.03;59.98;100303.53;5014643;28;20574;-88
2023/07/19 06:38:50;;;;;;;9.50;4.25;;;18.50;82.20;;;19.00;59.90;100310.31;4998012;28;20129;-88
2023/07/19 06:41:18;;;;;;;13.70;4.43;;;18.60;81.50;;;19.04;59.49;100310.59;4998530;28;20092;-86
2023/07/19 06:43:45;;;;;;;12.35;4.22;;;18.60;81.20;;;19.00;59.59;100310.31;4998262;28;20050;-86
2023/07/19 06:46:13;;;;;;;9.57;3.72;;;18.60;81.20;;;19.01;60.50;100311.94;4997939;28;20119;-86
2023/07/19 06:48:41;;;;;;;8.50;3.47;;;18.60;82.20;;;19.03;61.51;100315.19;4997806;28;20112;-86
2023/07/19 06:51:09;;;;;;;8.02;3.90;;;18.60;83.10;;;19.04;61.88;100322.22;4997981;28;20049;-86
2023/07/19 06:53:37;;;;;;;10.35;3.90;;;18.60;84.00;;;19.08;63.37;100324.34;5015258;28;20038;-86
2023/07/19 06:56:05;;;;;;;12.32;4.10;;;18.60;85.70;;;19.09;64.49;100320.59;4994947;28;20096;-87
2023/07/19 06:58:33;;;;;;;7.38;3.70;;;18.60;87.10;;;19.08;64.59;100316.25;4997523;28;20049;-88
2023/07/19 07:01:01;;;;;;;12.68;4.20;;;18.50;87.30;;;19.08;65.23;100310.84;4997825;28;20510;-87
2023/07/19 07:03:29;;;;;;;7.63;4.13;;;18.50;88.20;;;19.08;65.31;100310.84;4998376;28;20073;-88
2023/07/19 07:05:57;;;;;;;12.13;3.78;;;18.50;88.10;;;19.11;65.49;100310.31;4998005;28;20499;-88
2023/07/19 07:08:26;;;;;;;11.75;4.13;;;18.60;88.50;;;19.15;66.04;100317.59;4997974;28;20506;-88
2023/07/19 07:10:54;;;;;;;11.48;4.13;;;18.60;89.10;;;19.21;66.66;100321.09;4998265;28;20100;-88
2023/07/19 07:13:21;;;;;;;8.68;4.32;;;18.70;89.80;;;19.23;67.37;100318.97;4997176;28;20050;-88
2023/07/19 07:15:51;;;;;;;9.13;4.32;;;18.80;90.60;;;19.26;67.49;100326.50;4981785;28;20525;-88
2023/07/19 07:18:18;;;;;;;10.57;4.65;;;18.80;90.30;;;19.26;67.54;100326.50;4997643;28;20073;-88
2023/07/19 07:20:46;;;;;;;14.35;4.80;;;18.80;90.40;;;19.27;67.28;100331.63;4998064;28;20046;-88
2023/07/19 07:23:13;;;;;;;11.73;4.85;;;18.80;90.20;;;19.29;67.66;100324.06;4997946;28;20049;-88
2023/07/19 07:25:42;;;;;;;10.27;4.13;;;18.90;90.60;;;19.32;68.11;100325.41;4997933;28;20041;-88
2023/07/19 07:28:09;;;;;;;11.38;4.63;;;19.00;90.90;;;19.33;67.83;100326.25;5014012;28;20096;-88
2023/07/19 07:30:37;;;;;;;9.02;3.85;;;18.90;90.80;;;19.35;67.78;100334.88;4997729;28;20104;-88
2023/07/19 07:33:06;;;;;;;12.48;4.90;;;19.00;90.90;;;19.35;67.58;100324.88;4981416;28;20064;-88
2023/07/19 07:35:33;;;;;;;13.73;5.03;;;19.00;90.60;;;19.37;67.68;100328.09;4997374;28;20041;-88
2023/07/19 07:38:00;;;;;;;11.52;4.00;;;19.00;90.40;;;19.40;67.58;100334.88;4996668;28;20443;-86
2023/07/19 07:40:28;;;;;;;12.43;4.80;;;19.00;90.60;;;19.38;67.97;100335.16;4996303;28;20081;-86
2023/07/19 07:42:57;;;;;;;11.52;4.88;;;19.00;90.40;;;19.37;67.40;100335.41;4996822;28;20132;-86
2023/07/19 07:45:25;;;;;;;9.98;4.63;;;19.00;90.20;;;19.39;67.15;100342.19;5014505;28;20121;-86
2023/07/19 07:47:52;;;;;;;10.05;5.03;;;19.00;89.70;;;19.39;67.29;100339.47;4996818;28;20414;-86
2023/07/19 07:50:19;;;;;;;14.27;4.80;;;19.00;90.20;;;19.35;67.35;100338.41;4996661;28;20136;-86
2023/07/19 07:52:47;;;;;;;10.77;4.93;;;19.00;90.20;;;19.39;67.84;100335.97;5013100;28;20057;-86
2023/07/19 07:55:14;;;;;;;11.75;4.80;;;19.00;90.60;;;19.38;67.81;100342.47;4980387;28;20133;-86
2023/07/19 07:57:42;;;;;;;9.73;4.68;;;19.10;90.60;;;19.40;67.94;100340.28;4996711;28;20049;-86
2023/07/19 08:00:15;;;;;;;17.27;4.60;;;19.00;90.50;;;19.40;67.78;100334.88;5013733;28;20414;-86
2023/07/19 08:02:42;;;;;;;8.25;4.20;;;19.00;90.90;;;19.44;67.86;100330.53;4996489;28;20521;-86
2023/07/19 08:05:10;;;;;;;15.15;4.95;;;19.10;91.00;;;19.51;67.92;100331.88;4996620;28;20064;-86
2023/07/19 08:07:38;;;;;;;12.40;4.90;;;19.20;91.20;;;19.52;67.64;100333.50;4996572;28;20046;-86
2023/07/19 08:10:06;;;;;;;14.07;4.60;;;19.30;90.20;;;19.56;67.44;100334.56;4979932;28;20050;-86
2023/07/19 08:12:33;;;;;;;9.45;4.47;;;19.30;90.00;;;19.64;67.44;100327.00;5013827;28;20120;-86
2023/07/19 08:15:01;;;;;;;12.57;5.32;;;19.40;89.50;;;19.73;67.76;100325.38;4995884;28;20045;-86
2023/07/19 08:17:30;;;;;;;12.38;4.65;;;19.60;90.00;;;19.81;66.03;100327.47;4995734;28;20042;-86
2023/07/19 08:19:57;;;;;;;10.65;4.43;;;19.70;88.40;;;19.86;65.89;100319.34;5012517;28;20061;-86
2023/07/19 08:22:26;;;;;;;13.20;4.18;;;19.70;87.70;;;19.91;65.15;100318.53;4995931;28;20521;-86
2023/07/19 08:24:54;;;;;;;9.63;4.35;;;19.80;87.00;;;19.96;66.04;100318.50;5012925;28;20125;-86
2023/07/19 08:27:21;;;;;;;13.32;4.70;;;19.90;87.90;;;20.08;64.73;100320.91;5013574;28;20072;-86
2023/07/19 08:29:48;;;;;;;18.33;5.07;;;20.00;85.80;;;20.14;63.68;100325.19;5013189;28;20406;-86
2023/07/19 08:32:16;;;;;;;14.10;5.10;;;20.10;84.90;;;20.20;63.71;100322.19;4996043;28;20572;-86
2023/07/19 08:34:45;;;;;;;12.00;4.65;;;20.20;84.70;;;20.23;63.42;100318.13;4995791;28;20045;-86
2023/07/19 08:37:12;;;;;;;12.07;4.25;;;20.30;84.30;;;20.21;62.31;100317.59;4979819;28;20037;-86
2023/07/19 08:39:39;;;;;;;8.57;4.13;;;20.30;83.20;;;20.30;64.50;100321.31;4995594;28;20049;-86
2023/07/19 08:42:08;;;;;;;10.63;4.25;;;20.40;84.80;;;20.31;63.52;100312.13;4995971;28;20038;-86
2023/07/19 08:44:35;;;;;;;14.18;5.30;;;20.40;84.00;;;20.29;62.30;100319.69;4995739;28;20605;-86
2023/07/19 08:47:05;;;;;;;9.65;4.53;;;20.40;83.10;;;20.29;61.03;100317.00;4995709;28;20057;-86
2023/07/19 08:49:34;;;;;;;12.65;4.40;;;20.40;81.60;;;20.29;61.78;100317.00;4995265;28;20527;-86
2023/07/19 08:52:04;;;;;;;12.57;4.30;;;20.30;82.00;;;20.24;60.99;100315.13;5012908;28;20675;-86
2023/07/19 08:54:32;;;;;;;7.60;4.07;;;20.30;81.60;;;20.23;61.53;100312.69;4947668;28;20420;-86
2023/07/19 08:57:00;;;;;;;12.23;4.40;;;20.20;82.00;;;20.19;62.14;100308.94;4993420;28;20057;-86
2023/07/19 08:59:27;;;;;;;9.40;4.13;;;20.20;82.90;;;20.14;61.57;100312.47;4993132;28;20069;-86
2023/07/19 09:01:54;;;;;;;11.32;4.35;;;20.10;82.40;;;20.10;61.80;100305.97;4976134;28;20407;-86
2023/07/19 09:04:22;;;;;;;14.98;4.40;;;20.00;82.40;;;20.12;61.65;100305.72;4976068;28;20047;-86
2023/07/19 09:06:50;;;;;;;14.75;4.10;;;20.00;82.70;;;20.14;62.68;100308.94;5016567;23;20422;-87
2023/07/19 09:09:19;;;;;;;7.72;3.65;;;20.00;83.70;;;20.16;62.95;100309.50;4984775;28;20125;-86
2023/07/19 09:11:49;;;;;;;15.05;4.65;;;20.00;84.00;;;20.15;62.88;100299.72;4975084;28;20125;-86
2023/07/19 09:14:16;;;;;;;12.40;4.53;;;20.10;84.00;;;20.17;62.86;100305.69;4989493;28;20046;-86
2023/07/19 09:16:46;;;;;;;12.77;4.47;;;20.10;83.70;;;20.21;63.10;100290.50;4989339;28;20499;-86
2023/07/19 09:19:14;;;;;;;10.25;4.35;;;20.10;84.30;;;20.23;62.80;100307.28;4988571;28;20034;-86
2023/07/19 09:21:45;;;;;;;12.77;4.93;;;20.10;83.80;;;20.20;62.74;100308.63;4972864;28;20046;-86
2023/07/19 09:24:14;;;;;;;10.35;4.47;;;20.20;83.50;;;20.17;62.16;100301.09;4989123;28;20439;-86
2023/07/19 09:26:50;;;;;;;11.35;3.97;;;20.10;82.70;;;20.15;60.63;100303.25;4988932;28;20051;-86
2023/07/19 09:29:18;;;;;;;11.15;4.10;;;20.10;81.80;;;20.19;60.82;100303.50;4973322;28;20055;-86
2023/07/19 09:31:54;;;;;;;11.30;4.18;;;20.10;81.80;;;20.23;61.23;100310.78;4973585;28;20039;-86
2023/07/19 09:34:27;;;;;;;10.27;4.25;;;20.20;82.00;;;20.31;62.46;100306.69;4972446;28;20078;-87
2023/07/19 09:36:55;;;;;;;9.52;4.55;;;20.30;83.30;;;20.39;62.27;100297.97;4973310;28;20134;-86
2023/07/19 09:39:23;;;;;;;11.57;4.68;;;20.40;82.90;;;20.57;61.70;100299.25;4972666;28;20043;-86
2023/07/19 09:41:53;;;;;;;10.68;4.82;;;20.60;82.00;;;20.76;63.25;100293.97;4973995;28;20126;-86
2023/07/19 09:44:22;;;;;;;11.47;4.97;;;20.90;83.40;;;20.74;60.88;100293.41;4972759;28;20074;-86
2023/07/19 09:46:49;;;;;;;10.02;4.70;;;20.90;80.90;;;20.71;61.43;100288.59;4988420;28;20393;-87
2023/07/19 09:49:16;;;;;;;14.25;5.05;;;20.90;81.00;;;20.67;60.91;100296.47;4971744;28;20137;-86
2023/07/19 09:51:44;;;;;;;12.75;5.25;;;20.80;80.90;;;20.64;61.30;100294.31;4973469;28;20066;-87
2023/07/19 09:54:14;;;;;;;11.15;6.20;;;20.70;81.10;;;20.62;59.39;100296.50;4972027;28;20393;-87
2023/07/19 09:56:43;;;;;;;13.43;5.82;;;20.70;79.60;;;20.60;60.17;100289.75;4988413;28;20093;-86
2023/07/19 09:59:14;;;;;;;13.88;5.55;;;20.70;80.00;;;20.67;60.73;100293.75;4972221;28;20053;-86
2023/07/19 10:01:43;;;;;;;;;;;20.80;81.00;;;20.80;61.57;100290.41;4974173;28;20410;-86
2023/07/19 10:04:24;;;;;;;16.50;6.50;;;21.00;81.40;;;20.92;62.46;100295.44;4973683;28;20018;-86
2023/07/19 10:07:03;;;;;;;15.55;6.72;;;21.10;82.10;;;20.95;60.78;100289.47;4988311;28;20656;-86
2023/07/19 10:09:37;;;;;;;13.48;6.18;;;21.10;80.20;;;20.94;60.54;100287.84;4971380;28;20239;-86
2023/07/19 10:12:24;;;;;;;13.15;6.45;;;21.10;80.20;;;21.05;61.17;100288.56;4973127;28;20050;-86
2023/07/19 10:15:07;;;;;;;16.58;6.18;;;21.20;80.80;;;21.20;59.96;100285.69;4987971;28;20049;-86
2023/07/19 10:17:41;;;;;;;11.38;5.57;;;21.50;80.00;;;21.14;59.44;100286.06;4955942;28;20066;-86